This is the latest recevied weather packets stored in our database for station/object SP3SWJ-13. If no packets are shown the sender has not sent any weather packets the latest 10 day(s).
| Time | Temp. | Humidity | Pressure | Rain* | Wind** | Luminosity | Snow |
|---|---|---|---|---|---|---|---|
| 1777476859 | 13.33° C | 28% | 1020 hPa | - | - | 254 W/m² | - |
| 1777476558 | 13.33° C | 27% | 1020 hPa | - | - | 269 W/m² | - |
| 1777476257 | 12.78° C | 29% | 1020 hPa | - | - | 253 W/m² | - |
| 1777475956 | 12.22° C | 29% | 1020.1 hPa | - | - | 266 W/m² | - |
| 1777475655 | 12.22° C | 29% | 1020.1 hPa | - | - | 73 W/m² | - |
| 1777475354 | 12.78° C | 28% | 1020.1 hPa | - | - | 112 W/m² | - |
| 1777475053 | 13.33° C | 27% | 1020.1 hPa | - | - | 101 W/m² | - |
| 1777474752 | 12.22° C | 29% | 1020.1 hPa | - | - | 332 W/m² | - |
| 1777474451 | 12.22° C | 29% | 1020.2 hPa | - | - | 325 W/m² | - |
| 1777474150 | 11.67° C | 29% | 1020.1 hPa | - | - | 335 W/m² | - |
| 1777473849 | 11.67° C | 31% | 1020.1 hPa | - | - | 347 W/m² | - |
| 1777473549 | 11.67° C | 30% | 1020.1 hPa | - | - | 369 W/m² | - |
| 1777473247 | 12.22° C | 30% | 1020.1 hPa | - | - | 118 W/m² | - |
| 1777472946 | 12.22° C | 29% | 1020.1 hPa | - | - | 116 W/m² | - |
| 1777472645 | 13.33° C | 27% | 1020.1 hPa | - | - | 158 W/m² | - |
| 1777472344 | 13.89° C | 24% | 1020.1 hPa | - | - | 524 W/m² | - |
| 1777472043 | 12.78° C | 28% | 1020.2 hPa | - | - | 498 W/m² | - |
| 1777471742 | 12.78° C | 29% | 1020.1 hPa | - | - | 145 W/m² | - |
| 1777471441 | 13.33° C | 27% | 1020.1 hPa | - | - | 415 W/m² | - |
| 1777471140 | 12.78° C | 28% | 1020.1 hPa | - | - | 135 W/m² | - |
| 1777470839 | 13.33° C | 28% | 1020 hPa | - | - | 538 W/m² | - |
| 1777470538 | 12.78° C | 28% | 1020.1 hPa | - | - | 540 W/m² | - |
| 1777470237 | 12.22° C | 29% | 1020.2 hPa | - | - | 510 W/m² | - |
| 1777469936 | 11.67° C | 30% | 1020.3 hPa | - | - | 503 W/m² | - |
| 1777469635 | 11.11° C | 32% | 1020.2 hPa | - | - | 163 W/m² | - |
* Rain since midnight (hover to see other rain measurements)
** Current wind speed in m/s (hover to see current wind gust speed)